Time;durP1;ratioP1;P1;durP2;ratioP2;P2;SDS_P1;SDS_P2;PMS_P1;PMS_P2;Temp;Humidity;BMP_temperature;BMP_pressure;BME280_temperature;BME280_humidity;BME280_pressure;Samples;Min_cycle;Max_cycle;Signal;HPM_P1;HPM_P2
2022/12/27 00:01:20;;;;;;;16.20;4.30;;;;;;;;;;4898773;29;20456;-88
2022/12/27 00:03:48;;;;;;;8.93;2.90;;;;;;;;;;4887656;29;20441;-88
2022/12/27 00:06:19;;;;;;;4.70;2.97;;;;;;;;;;4876230;29;20446;-88
2022/12/27 00:08:46;;;;;;;19.70;6.17;;;;;;;;;;4899351;29;20524;-88
2022/12/27 00:11:17;;;;;;;15.40;5.90;;;;;;;;;;4898940;29;20533;-88
2022/12/27 00:13:44;;;;;;;15.23;4.10;;;;;;;;;;4883613;29;20481;-88
2022/12/27 00:16:12;;;;;;;11.97;3.57;;;;;;;;;;4878704;29;21062;-89
2022/12/27 00:18:40;;;;;;;4.20;1.60;;;;;;;;;;4900777;29;20449;-88
2022/12/27 00:21:09;;;;;;;8.90;2.20;;;;;;;;;;4874765;29;20473;-87
2022/12/27 00:23:39;;;;;;;10.57;2.07;;;;;;;;;;4898062;29;20441;-88
2022/12/27 00:26:10;;;;;;;5.20;1.50;;;;;;;;;;4900547;29;20448;-88
2022/12/27 00:28:38;;;;;;;7.00;1.97;;;;;;;;;;4887093;29;20520;-88
2022/12/27 00:31:12;;;;;;;9.57;1.60;;;;;;;;;;4874977;29;20453;-88
2022/12/27 00:33:40;;;;;;;2.97;1.60;;;;;;;;;;4879025;29;20457;-88
2022/12/27 00:36:15;;;;;;;8.50;1.90;;;;;;;;;;4868343;29;20861;-89
2022/12/27 00:38:43;;;;;;;9.10;3.43;;;;;;;;;;4868220;29;20540;-88
2022/12/27 00:41:12;;;;;;;6.83;2.37;;;;;;;;;;4873766;29;20541;-88
2022/12/27 00:43:40;;;;;;;5.77;2.60;;;;;;;;;;4883333;29;20445;-88
2022/12/27 00:46:09;;;;;;;7.87;2.93;;;;;;;;;;4868163;29;20474;-88
2022/12/27 00:48:37;;;;;;;8.00;2.93;;;;;;;;;;4883215;29;20489;-88
2022/12/27 00:51:07;;;;;;;7.43;2.63;;;;;;;;;;4883468;29;20450;-88
2022/12/27 00:53:35;;;;;;;6.93;3.03;;;;;;;;;;4883767;29;20429;-88
2022/12/27 00:56:29;;;;;;;8.23;3.63;;;;;;;;;;4898633;29;20453;-88
2022/12/27 00:59:01;;;;;;;8.23;3.50;;;;;;;;;;4883203;29;20797;-88
2022/12/27 01:01:33;;;;;;;15.53;6.77;;;;;;;;;;4898617;29;20441;-88
2022/12/27 01:04:03;;;;;;;9.07;4.43;;;;;;;;;;4865301;29;20865;-88
2022/12/27 01:06:35;;;;;;;12.87;4.40;;;;;;;;;;4880207;29;20434;-88
2022/12/27 01:09:02;;;;;;;11.90;3.93;;;;;;;;;;4878824;29;20490;-89
2022/12/27 01:11:30;;;;;;;6.03;3.53;;;;;;;;;;4864139;29;20455;-88
2022/12/27 01:13:58;;;;;;;5.30;3.30;;;;;;;;;;4864149;29;20533;-89
2022/12/27 01:16:27;;;;;;;8.47;3.50;;;;;;;;;;4864750;29;20926;-89
2022/12/27 01:18:54;;;;;;;8.87;3.60;;;;;;;;;;4864632;29;20450;-88
2022/12/27 01:21:25;;;;;;;7.97;3.30;;;;;;;;;;4882405;29;20460;-88
2022/12/27 01:23:54;;;;;;;9.13;3.30;;;;;;;;;;4883776;29;20457;-88
2022/12/27 01:26:22;;;;;;;8.60;3.50;;;;;;;;;;4870667;29;20946;-89
2022/12/27 01:28:51;;;;;;;8.83;3.97;;;;;;;;;;4867329;29;20846;-88
2022/12/27 01:31:26;;;;;;;12.90;4.03;;;;;;;;;;4875597;29;20494;-89
2022/12/27 01:33:56;;;;;;;14.67;3.93;;;;;;;;;;4882026;29;20449;-88
2022/12/27 01:36:24;;;;;;;6.60;3.40;;;;;;;;;;4882192;29;20454;-88
2022/12/27 01:38:51;;;;;;;6.80;3.77;;;;;;;;;;4882057;29;20548;-88
2022/12/27 01:44:25;;;;;;;13.20;2.00;;;;;;;;;;4878625;29;21016;-88
2022/12/27 01:46:55;;;;;;;6.53;1.40;;;;;;;;;;4894097;29;20449;-88
2022/12/27 01:49:24;;;;;;;2.83;1.43;;;;;;;;;;4863547;29;20534;-88
2022/12/27 01:51:59;;;;;;;3.37;1.30;;;;;;;;;;4881648;29;20879;-88
2022/12/27 01:54:27;;;;;;;9.20;2.03;;;;;;;;;;4878208;29;20442;-88
2022/12/27 01:56:55;;;;;;;8.63;3.03;;;;;;;;;;4881138;29;20569;-88
2022/12/27 01:59:22;;;;;;;8.90;2.63;;;;;;;;;;4864548;29;20434;-88
2022/12/27 02:01:50;;;;;;;5.50;2.43;;;;;;;;;;4878729;29;20451;-88
2022/12/27 02:04:20;;;;;;;6.87;2.67;;;;;;;;;;4882166;29;20450;-88
2022/12/27 02:06:47;;;;;;;7.47;2.30;;;;;;;;;;4877804;29;20450;-88
2022/12/27 02:09:25;;;;;;;8.23;2.83;;;;;;;;;;4865972;29;20497;-88
2022/12/27 02:11:55;;;;;;;7.00;2.13;;;;;;;;;;4880047;29;20973;-87
2022/12/27 02:14:32;;;;;;;6.00;2.17;;;;;;;;;;4882636;29;20481;-88
2022/12/27 02:17:00;;;;;;;12.43;2.70;;;;;;;;;;4866524;29;20540;-88
2022/12/27 02:19:40;;;;;;;5.37;3.03;;;;;;;;;;4882700;29;20448;-89
2022/12/27 02:22:11;;;;;;;9.63;2.60;;;;;;;;;;4898404;29;20472;-89
2022/12/27 02:24:49;;;;;;;8.30;2.77;;;;;;;;;;4897982;29;20457;-88
2022/12/27 02:27:36;;;;;;;7.80;2.50;;;;;;;;;;4912550;29;20446;-88
2022/12/27 02:30:09;;;;;;;5.77;2.40;;;;;;;;;;4912582;29;20457;-88
2022/12/27 02:32:53;;;;;;;6.30;2.60;;;;;;;;;;4897583;29;20445;-88
2022/12/27 02:35:39;;;;;;;7.20;3.10;;;;;;;;;;4883533;29;20958;-88
2022/12/27 02:38:19;;;;;;;4.87;2.90;;;;;;;;;;4872991;29;20544;-89
2022/12/27 02:55:16;;;;;;;8.03;1.93;;;;;;;;;;4898640;29;20453;-88
2022/12/27 02:58:03;;;;;;;3.70;1.97;;;;;;;;;;4872316;29;20473;-88
2022/12/27 03:03:57;;;;;;;5.30;2.60;;;;;;;;;;4896929;29;20449;-89
2022/12/27 03:06:39;;;;;;;6.60;2.50;;;;;;;;;;4898378;29;20570;-88
2022/12/27 03:18:35;;;;;;;8.67;2.50;;;;;;;;;;4881944;29;20540;-88
2022/12/27 03:26:38;;;;;;;8.43;2.17;;;;;;;;;;4883273;29;20450;-89
2022/12/27 03:34:49;;;;;;;5.70;2.10;;;;;;;;;;4897510;29;20485;-89
2022/12/27 03:40:11;;;;;;;5.80;3.30;;;;;;;;;;4893451;29;20514;-88
2022/12/27 03:48:26;;;;;;;6.17;2.50;;;;;;;;;;4901442;29;20485;-89
2022/12/27 03:50:55;;;;;;;6.00;1.80;;;;;;;;;;4865009;29;20511;-89
2022/12/27 03:53:25;;;;;;;5.43;1.40;;;;;;;;;;4838004;29;20455;-89
2022/12/27 03:55:57;;;;;;;6.77;1.47;;;;;;;;;;4850583;29;20938;-89
2022/12/27 03:58:24;;;;;;;3.47;1.10;;;;;;;;;;4877723;29;20474;-89
2022/12/27 04:00:52;;;;;;;2.93;1.10;;;;;;;;;;4865664;29;21038;-89
2022/12/27 04:03:20;;;;;;;2.70;1.00;;;;;;;;;;4883372;29;20953;-89
2022/12/27 04:05:47;;;;;;;3.10;0.83;;;;;;;;;;4873255;29;20453;-89
2022/12/27 04:36:50;;;;;;;12.83;3.27;;;;;;;;;;4894069;29;20468;-89
2022/12/27 04:39:19;;;;;;;7.07;2.77;;;;;;;;;;4881073;29;20514;-89
2022/12/27 04:55:35;;;;;;;7.33;1.80;;;;;;;;;;4904467;29;20523;-88
2022/12/27 04:58:08;;;;;;;6.60;1.90;;;;;;;;;;4918586;29;20528;-89
2022/12/27 05:03:22;;;;;;;3.90;1.60;;;;;;;;;;4904097;29;20455;-89
2022/12/27 05:05:50;;;;;;;3.30;2.03;;;;;;;;;;4918654;29;20453;-89
2022/12/27 05:14:01;;;;;;;3.03;1.80;;;;;;;;;;4885382;29;20923;-89
2022/12/27 05:16:29;;;;;;;6.20;1.90;;;;;;;;;;4884987;29;20502;-90
2022/12/27 05:18:56;;;;;;;4.53;2.37;;;;;;;;;;4882636;29;20496;-89
2022/12/27 05:21:23;;;;;;;3.17;1.80;;;;;;;;;;4891719;29;20477;-90
2022/12/27 05:26:41;;;;;;;4.63;1.30;;;;;;;;;;4899256;29;20454;-90
2022/12/27 05:29:10;;;;;;;2.37;1.40;;;;;;;;;;4867462;29;20520;-89
2022/12/27 05:31:37;;;;;;;4.00;1.20;;;;;;;;;;4872218;29;20446;-90
2022/12/27 05:34:05;;;;;;;4.50;1.90;;;;;;;;;;4869032;29;20442;-90
2022/12/27 05:36:32;;;;;;;4.27;1.70;;;;;;;;;;4901346;29;20448;-90
2022/12/27 05:38:59;;;;;;;5.00;1.60;;;;;;;;;;4900292;29;20823;-89
2022/12/27 05:41:32;;;;;;;3.80;1.47;;;;;;;;;;4885947;29;20449;-90
2022/12/27 05:44:01;;;;;;;6.80;1.40;;;;;;;;;;4875924;29;20441;-89
2022/12/27 05:46:34;;;;;;;2.63;1.00;;;;;;;;;;4888033;29;20956;-89
2022/12/27 05:49:08;;;;;;;2.80;0.93;;;;;;;;;;4866811;29;20453;-89
2022/12/27 05:51:36;;;;;;;4.53;1.10;;;;;;;;;;4882630;29;20457;-89
2022/12/27 05:54:04;;;;;;;3.30;1.33;;;;;;;;;;4866752;29;20457;-89
2022/12/27 05:56:37;;;;;;;6.27;0.87;;;;;;;;;;4882322;29;20998;-90
2022/12/27 05:59:06;;;;;;;8.50;1.83;;;;;;;;;;4872942;29;20519;-89
2022/12/27 06:01:36;;;;;;;4.17;0.80;;;;;;;;;;4881293;29;20493;-90
2022/12/27 06:04:15;;;;;;;3.80;0.83;;;;;;;;;;4885703;29;20453;-90
2022/12/27 06:06:49;;;;;;;3.43;1.00;;;;;;;;;;4884968;29;20480;-87
2022/12/27 06:09:23;;;;;;;3.07;0.80;;;;;;;;;;4900887;29;20536;-87
2022/12/27 06:11:57;;;;;;;4.57;1.60;;;;;;;;;;4880114;29;20547;-87
2022/12/27 06:14:24;;;;;;;9.50;1.60;;;;;;;;;;4875949;29;20484;-87
2022/12/27 06:17:04;;;;;;;3.60;1.40;;;;;;;;;;4867212;29;20442;-87
2022/12/27 06:19:37;;;;;;;5.83;1.80;;;;;;;;;;4898559;29;21047;-88
2022/12/27 06:22:04;;;;;;;4.37;1.90;;;;;;;;;;4859942;29;20482;-87
2022/12/27 06:24:33;;;;;;;5.17;1.47;;;;;;;;;;4866741;29;20509;-87
2022/12/27 06:27:00;;;;;;;3.10;1.00;;;;;;;;;;4877631;29;21347;-87
2022/12/27 06:29:33;;;;;;;3.27;1.20;;;;;;;;;;4879653;29;20468;-88
2022/12/27 06:32:01;;;;;;;2.40;1.20;;;;;;;;;;4894204;29;20560;-87
2022/12/27 06:34:28;;;;;;;3.73;1.33;;;;;;;;;;4882376;29;20537;-87
2022/12/27 06:37:04;;;;;;;4.07;1.70;;;;;;;;;;4869130;29;20889;-88
2022/12/27 06:39:32;;;;;;;4.27;1.43;;;;;;;;;;4899192;29;21071;-88
2022/12/27 06:42:01;;;;;;;1.90;1.00;;;;;;;;;;4882015;29;20879;-88
2022/12/27 06:44:29;;;;;;;11.40;6.27;;;;;;;;;;4900145;29;20491;-88
2022/12/27 06:46:56;;;;;;;14.50;7.50;;;;;;;;;;4889188;29;20437;-88
2022/12/27 06:49:24;;;;;;;7.13;3.27;;;;;;;;;;4904095;29;20476;-88
2022/12/27 06:51:53;;;;;;;11.33;4.77;;;;;;;;;;4904892;29;20527;-88
2022/12/27 06:54:32;;;;;;;5.60;3.07;;;;;;;;;;4889994;29;20484;-88
2022/12/27 06:57:01;;;;;;;7.27;3.37;;;;;;;;;;4888997;29;20472;-88
2022/12/27 06:59:36;;;;;;;13.87;5.53;;;;;;;;;;4887977;29;20499;-88
2022/12/27 07:02:10;;;;;;;11.40;5.03;;;;;;;;;;4890261;29;20544;-88
2022/12/27 07:04:37;;;;;;;11.00;5.03;;;;;;;;;;4870158;29;20497;-88
2022/12/27 07:07:04;;;;;;;6.37;2.80;;;;;;;;;;4879099;29;20541;-88
2022/12/27 07:09:37;;;;;;;8.07;4.43;;;;;;;;;;4905835;29;20497;-88
2022/12/27 07:12:06;;;;;;;22.13;8.17;;;;;;;;;;4891655;29;20450;-88
2022/12/27 07:14:35;;;;;;;9.30;4.60;;;;;;;;;;4869773;29;20487;-88
2022/12/27 07:17:06;;;;;;;5.83;3.43;;;;;;;;;;4878026;29;20463;-88
2022/12/27 07:19:33;;;;;;;5.20;2.20;;;;;;;;;;4915467;29;20473;-88
2022/12/27 07:22:02;;;;;;;2.73;1.20;;;;;;;;;;4869404;29;20464;-88
2022/12/27 07:24:32;;;;;;;6.13;1.30;;;;;;;;;;4866804;29;20453;-88
2022/12/27 07:27:03;;;;;;;5.43;1.50;;;;;;;;;;4884829;29;20469;-88
2022/12/27 07:29:30;;;;;;;9.67;1.77;;;;;;;;;;4901919;29;20484;-88
2022/12/27 07:32:05;;;;;;;5.50;3.10;;;;;;;;;;4901568;29;20528;-87
2022/12/27 07:34:43;;;;;;;3.90;2.10;;;;;;;;;;4869975;29;20457;-88
2022/12/27 07:37:16;;;;;;;6.80;1.20;;;;;;;;;;4895445;29;20478;-88
2022/12/27 07:39:45;;;;;;;4.70;0.80;;;;;;;;;;4875954;29;20493;-88
2022/12/27 07:42:12;;;;;;;2.70;0.90;;;;;;;;;;4892837;29;20458;-88
2022/12/27 07:44:41;;;;;;;5.17;2.13;;;;;;;;;;4883072;29;20509;-88
2022/12/27 07:47:15;;;;;;;1.80;0.77;;;;;;;;;;4876866;29;20476;-88
2022/12/27 07:49:43;;;;;;;2.90;1.00;;;;;;;;;;4902771;29;21006;-88
2022/12/27 07:52:13;;;;;;;5.57;1.30;;;;;;;;;;4919998;29;20480;-88
2022/12/27 07:54:41;;;;;;;6.17;1.00;;;;;;;;;;4881199;29;20490;-89
2022/12/27 07:57:09;;;;;;;2.27;1.10;;;;;;;;;;4903128;29;20552;-88
2022/12/27 07:59:42;;;;;;;3.70;1.23;;;;;;;;;;4903169;29;20911;-88
2022/12/27 08:02:32;;;;;;;5.70;1.00;;;;;;;;;;4902475;29;20789;-88
2022/12/27 08:05:01;;;;;;;3.70;1.50;;;;;;;;;;4903074;29;20507;-88
2022/12/27 08:07:28;;;;;;;5.00;1.33;;;;;;;;;;4885623;29;20949;-88
2022/12/27 08:09:56;;;;;;;5.20;2.23;;;;;;;;;;4876951;29;20472;-87
2022/12/27 08:12:29;;;;;;;11.80;1.43;;;;;;;;;;4896793;29;20451;-88
2022/12/27 08:14:57;;;;;;;8.93;2.80;;;;;;;;;;4899567;29;20462;-88
2022/12/27 08:17:26;;;;;;;7.83;1.97;;;;;;;;;;4914955;29;20576;-89
2022/12/27 08:19:54;;;;;;;4.27;1.43;;;;;;;;;;4892180;29;20476;-88
2022/12/27 08:22:30;;;;;;;4.30;1.70;;;;;;;;;;4902668;29;20540;-88
2022/12/27 08:24:57;;;;;;;4.23;1.43;;;;;;;;;;4902442;29;20449;-88
2022/12/27 08:27:30;;;;;;;4.70;1.47;;;;;;;;;;4886923;29;20452;-88
2022/12/27 08:30:01;;;;;;;8.50;2.60;;;;;;;;;;4886046;29;20891;-87
2022/12/27 08:32:37;;;;;;;6.37;2.30;;;;;;;;;;4899577;29;20449;-88
2022/12/27 08:35:11;;;;;;;9.33;2.37;;;;;;;;;;4880540;29;20529;-88
2022/12/27 08:38:05;;;;;;;8.30;2.87;;;;;;;;;;4883607;29;20448;-88
2022/12/27 08:40:39;;;;;;;12.53;3.37;;;;;;;;;;4910669;29;20490;-88
2022/12/27 08:43:13;;;;;;;16.10;4.10;;;;;;;;;;4884540;29;20450;-88
2022/12/27 08:45:40;;;;;;;14.83;4.40;;;;;;;;;;4868390;29;20450;-88
2022/12/27 08:48:14;;;;;;;14.93;5.63;;;;;;;;;;4883956;29;20480;-88
2022/12/27 08:50:41;;;;;;;22.23;8.80;;;;;;;;;;4899402;29;20454;-88
2022/12/27 08:53:13;;;;;;;16.33;6.50;;;;;;;;;;4875126;29;20453;-88
2022/12/27 08:55:41;;;;;;;13.57;5.57;;;;;;;;;;4885608;29;20449;-88
2022/12/27 08:58:10;;;;;;;29.10;11.17;;;;;;;;;;4883167;29;20513;-88
2022/12/27 09:00:43;;;;;;;21.43;7.60;;;;;;;;;;4881191;29;20490;-88
2022/12/27 09:03:10;;;;;;;17.30;7.60;;;;;;;;;;4879901;29;20443;-87
2022/12/27 09:05:38;;;;;;;25.20;7.90;;;;;;;;;;4882346;29;20527;-88
2022/12/27 09:08:09;;;;;;;16.33;6.87;;;;;;;;;;4884497;29;20512;-88
2022/12/27 09:10:44;;;;;;;22.70;8.20;;;;;;;;;;4886016;29;20449;-88
2022/12/27 09:13:11;;;;;;;20.17;7.67;;;;;;;;;;4883958;29;20535;-88
2022/12/27 09:15:38;;;;;;;17.40;8.50;;;;;;;;;;4889471;29;20446;-88
2022/12/27 09:18:08;;;;;;;13.37;8.13;;;;;;;;;;4882840;29;20792;-88
2022/12/27 09:20:36;;;;;;;24.77;10.50;;;;;;;;;;4886371;29;20478;-88
2022/12/27 09:23:10;;;;;;;56.03;32.30;;;;;;;;;;4868303;29;20446;-88
2022/12/27 09:25:37;;;;;;;78.80;40.10;;;;;;;;;;4891210;29;20532;-88
2022/12/27 09:28:06;;;;;;;61.97;34.10;;;;;;;;;;4883284;29;20446;-89
2022/12/27 09:30:40;;;;;;;53.47;33.17;;;;;;;;;;4880020;29;20480;-88
2022/12/27 09:33:15;;;;;;;53.80;31.83;;;;;;;;;;4883636;29;20453;-89
2022/12/27 09:35:50;;;;;;;82.33;40.23;;;;;;;;;;4885851;29;20456;-89
2022/12/27 09:38:26;;;;;;;84.53;44.57;;;;;;;;;;4876930;29;20458;-89
2022/12/27 09:41:01;;;;;;;73.17;41.27;;;;;;;;;;4891999;29;20488;-89
2022/12/27 09:43:37;;;;;;;80.87;40.53;;;;;;;;;;4884471;29;20539;-89
2022/12/27 09:46:17;;;;;;;80.97;40.27;;;;;;;;;;4902726;29;20445;-89
2022/12/27 09:48:53;;;;;;;67.80;37.93;;;;;;;;;;4885914;29;20483;-89
2022/12/27 09:51:23;;;;;;;43.67;20.27;;;;;;;;;;4900477;29;20952;-89
2022/12/27 09:54:13;;;;;;;60.30;31.43;;;;;;;;;;4875351;29;20446;-89
2022/12/27 09:56:41;;;;;;;38.47;18.57;;;;;;;;;;4898175;29;20438;-89
2022/12/27 09:59:31;;;;;;;25.93;12.07;;;;;;;;;;4897462;29;20964;-90
2022/12/27 10:02:01;;;;;;;29.27;12.53;;;;;;;;;;4913403;29;20453;-90
2022/12/27 10:04:32;;;;;;;15.43;5.20;;;;;;;;;;4898108;29;20498;-88
2022/12/27 10:07:21;;;;;;;10.40;2.20;;;;;;;;;;4884436;29;20453;-87
2022/12/27 10:09:58;;;;;;;8.53;2.07;;;;;;;;;;4876730;29;20509;-87
2022/12/27 10:12:44;;;;;;;8.90;1.43;;;;;;;;;;4896955;29;20457;-87
2022/12/27 10:15:32;;;;;;;7.07;1.50;;;;;;;;;;4900997;29;20472;-88
2022/12/27 10:18:17;;;;;;;4.07;1.10;;;;;;;;;;4919927;29;21023;-87
2022/12/27 10:20:45;;;;;;;9.07;2.40;;;;;;;;;;4905591;29;20520;-86
2022/12/27 10:23:15;;;;;;;12.20;2.80;;;;;;;;;;4900339;29;20529;-87
2022/12/27 10:25:44;;;;;;;8.37;3.40;;;;;;;;;;4869280;29;20453;-88
2022/12/27 10:28:21;;;;;;;16.33;3.23;;;;;;;;;;4884279;29;20430;-87
2022/12/27 10:30:49;;;;;;;10.20;2.30;;;;;;;;;;4867801;29;20442;-87
2022/12/27 10:33:20;;;;;;;12.00;2.10;;;;;;;;;;4883953;29;20445;-87
2022/12/27 10:35:49;;;;;;;9.43;2.80;;;;;;;;;;4866590;29;20546;-88
2022/12/27 10:38:16;;;;;;;8.63;1.60;;;;;;;;;;4898296;29;20945;-88
2022/12/27 10:40:55;;;;;;;12.30;2.80;;;;;;;;;;4882971;29;20478;-88
2022/12/27 10:43:38;;;;;;;13.67;3.67;;;;;;;;;;4898756;29;20482;-88
2022/12/27 10:46:10;;;;;;;7.60;2.10;;;;;;;;;;4885020;29;20532;-88
2022/12/27 10:48:38;;;;;;;10.13;2.20;;;;;;;;;;4809990;29;20546;-88
2022/12/27 10:51:26;;;;;;;10.67;1.70;;;;;;;;;;4841277;29;20446;-87
2022/12/27 10:53:56;;;;;;;4.90;1.30;;;;;;;;;;4824838;29;21011;-89
2022/12/27 10:56:27;;;;;;;2.90;1.10;;;;;;;;;;4825884;29;21051;-90
2022/12/27 10:59:04;;;;;;;8.00;1.20;;;;;;;;;;4825209;29;20497;-89
2022/12/27 11:01:32;;;;;;;10.33;1.23;;;;;;;;;;4811121;29;20591;-91
2022/12/27 11:04:20;;;;;;;8.30;1.37;;;;;;;;;;4811238;29;20453;-92
2022/12/27 11:07:01;;;;;;;5.57;1.10;;;;;;;;;;4864766;29;21035;-92
2022/12/27 11:09:34;;;;;;;3.83;1.60;;;;;;;;;;4907961;29;20533;-89
2022/12/27 11:12:23;;;;;;;6.03;1.47;;;;;;;;;;4869833;29;20485;-90
2022/12/27 11:14:58;;;;;;;5.83;1.80;;;;;;;;;;4901173;29;20984;-90
2022/12/27 11:17:34;;;;;;;5.47;1.37;;;;;;;;;;4885310;29;20460;-90
2022/12/27 11:20:02;;;;;;;8.13;1.47;;;;;;;;;;4884080;29;20476;-88
2022/12/27 11:22:29;;;;;;;5.33;1.20;;;;;;;;;;4878278;29;20476;-88
2022/12/27 11:24:57;;;;;;;5.40;1.10;;;;;;;;;;4887627;29;20445;-88
2022/12/27 11:27:28;;;;;;;3.00;0.90;;;;;;;;;;4866764;29;20462;-88
2022/12/27 11:29:55;;;;;;;3.20;1.10;;;;;;;;;;4896360;29;20946;-89
2022/12/27 11:32:23;;;;;;;3.40;1.13;;;;;;;;;;4877687;29;20533;-88
2022/12/27 11:34:52;;;;;;;7.77;1.97;;;;;;;;;;4891555;29;20485;-88
2022/12/27 11:37:21;;;;;;;6.77;1.37;;;;;;;;;;4855885;29;20454;-88
2022/12/27 11:39:50;;;;;;;5.90;1.27;;;;;;;;;;4873847;29;20472;-86
2022/12/27 11:42:40;;;;;;;5.93;1.03;;;;;;;;;;4895641;29;20482;-87
2022/12/27 11:45:22;;;;;;;3.03;1.00;;;;;;;;;;4901087;29;20529;-88
2022/12/27 11:47:53;;;;;;;9.07;1.40;;;;;;;;;;4888279;29;20454;-92
2022/12/27 11:50:36;;;;;;;8.33;1.43;;;;;;;;;;4917014;29;20469;-92
2022/12/27 11:56:43;;;;;;;6.10;0.90;;;;;;;;;;4904217;29;20429;-92
2022/12/27 12:02:35;;;;;;;5.60;1.37;;;;;;;;;;4886908;29;20804;-92
2022/12/27 12:05:23;;;;;;;6.23;1.77;;;;;;;;;;4882154;29;20446;-92
2022/12/27 12:08:29;;;;;;;7.60;1.73;;;;;;;;;;4883504;29;20587;-93
2022/12/27 12:14:16;;;;;;;6.30;0.90;;;;;;;;;;4872753;29;20521;-92
2022/12/27 12:20:03;;;;;;;8.70;1.27;;;;;;;;;;4881073;29;20950;-94
2022/12/27 12:22:43;;;;;;;3.90;1.03;;;;;;;;;;4881485;29;20446;-92
2022/12/27 12:25:33;;;;;;;5.30;1.03;;;;;;;;;;4868202;29;20470;-92
2022/12/27 12:28:19;;;;;;;6.60;1.40;;;;;;;;;;4867313;29;20462;-92
2022/12/27 12:31:15;;;;;;;5.60;1.10;;;;;;;;;;4882530;29;20446;-93
2022/12/27 12:37:07;;;;;;;8.83;1.03;;;;;;;;;;4879316;29;20443;-91
2022/12/27 12:39:57;;;;;;;4.03;1.30;;;;;;;;;;4864638;29;20447;-91
2022/12/27 12:42:56;;;;;;;4.83;0.90;;;;;;;;;;4865943;29;20457;-93
2022/12/27 12:48:18;;;;;;;3.57;1.00;;;;;;;;;;4915405;29;20458;-88
2022/12/27 12:54:13;;;;;;;4.03;1.10;;;;;;;;;;4908622;29;20525;-91
2022/12/27 12:57:03;;;;;;;5.37;0.70;;;;;;;;;;4916186;29;20442;-90
2022/12/27 12:59:37;;;;;;;11.03;1.57;;;;;;;;;;4897946;29;20863;-91
2022/12/27 13:05:29;;;;;;;5.33;1.00;;;;;;;;;;4904599;29;20540;-90
2022/12/27 13:08:07;;;;;;;5.40;0.93;;;;;;;;;;4864432;29;20435;-91
2022/12/27 13:10:53;;;;;;;6.67;1.53;;;;;;;;;;4864152;29;20474;-90
2022/12/27 13:13:20;;;;;;;9.13;1.00;;;;;;;;;;4846993;29;20436;-91
2022/12/27 13:19:03;;;;;;;9.13;1.00;;;;;;;;;;4845061;29;20456;-91
2022/12/27 13:24:47;;;;;;;4.73;1.20;;;;;;;;;;4842560;29;20460;-89
2022/12/27 13:27:14;;;;;;;5.10;1.17;;;;;;;;;;4869372;29;20464;-89
2022/12/27 13:29:54;;;;;;;6.10;1.97;;;;;;;;;;4872554;29;20443;-89
2022/12/27 13:32:28;;;;;;;4.93;1.43;;;;;;;;;;4859714;29;20539;-89
2022/12/27 13:37:46;;;;;;;6.30;0.80;;;;;;;;;;4876310;29;20452;-89
2022/12/27 13:40:23;;;;;;;4.17;1.20;;;;;;;;;;4878099;29;20443;-89
2022/12/27 13:43:09;;;;;;;4.67;1.07;;;;;;;;;;4880862;29;20541;-90
2022/12/27 13:45:57;;;;;;;3.93;0.90;;;;;;;;;;4896628;29;20941;-90
2022/12/27 13:48:43;;;;;;;3.70;1.03;;;;;;;;;;4882488;29;20453;-89
2022/12/27 13:51:14;;;;;;;6.33;0.70;;;;;;;;;;4898322;29;20453;-89
2022/12/27 13:53:50;;;;;;;5.13;0.70;;;;;;;;;;4898959;29;20478;-90
2022/12/27 13:56:23;;;;;;;7.73;1.10;;;;;;;;;;4897471;29;20441;-90
2022/12/27 13:59:10;;;;;;;4.67;1.10;;;;;;;;;;4884492;29;20466;-92
2022/12/27 14:01:44;;;;;;;3.13;0.97;;;;;;;;;;4899236;29;20484;-90
2022/12/27 14:04:30;;;;;;;4.53;0.80;;;;;;;;;;4882507;29;20509;-90
2022/12/27 14:07:20;;;;;;;5.20;1.10;;;;;;;;;;4900317;29;20815;-94
2022/12/27 14:09:54;;;;;;;6.30;0.93;;;;;;;;;;4888068;29;20455;-91
2022/12/27 14:12:38;;;;;;;10.40;0.90;;;;;;;;;;4895149;29;20453;-91
2022/12/27 14:15:06;;;;;;;16.10;1.50;;;;;;;;;;4879200;29;20470;-91
2022/12/27 14:17:34;;;;;;;3.67;0.70;;;;;;;;;;4848786;29;20463;-91
2022/12/27 14:20:14;;;;;;;5.13;0.80;;;;;;;;;;4880442;29;20447;-91
2022/12/27 14:23:00;;;;;;;5.37;0.90;;;;;;;;;;4863770;29;20506;-91
2022/12/27 14:25:33;;;;;;;3.03;0.70;;;;;;;;;;4880550;29;20446;-91
2022/12/27 14:28:20;;;;;;;2.80;0.90;;;;;;;;;;4879390;29;20517;-91
2022/12/27 14:33:42;;;;;;;5.03;0.80;;;;;;;;;;4880612;29;21067;-91
2022/12/27 14:36:28;;;;;;;2.00;0.80;;;;;;;;;;4864286;29;20438;-91
2022/12/27 14:39:17;;;;;;;6.50;1.00;;;;;;;;;;4880496;29;20462;-91
2022/12/27 14:41:50;;;;;;;8.47;1.33;;;;;;;;;;4879142;29;20498;-91
2022/12/27 14:44:28;;;;;;;4.13;0.80;;;;;;;;;;4879407;29;20446;-90
2022/12/27 14:47:15;;;;;;;8.83;1.03;;;;;;;;;;4879084;29;20470;-91
2022/12/27 14:49:48;;;;;;;6.80;1.53;;;;;;;;;;4863828;29;20446;-90
2022/12/27 14:52:37;;;;;;;4.27;0.80;;;;;;;;;;4879308;29;20478;-92
2022/12/27 14:55:23;;;;;;;1.93;0.60;;;;;;;;;;4879371;29;20454;-91
2022/12/27 14:57:52;;;;;;;2.43;1.00;;;;;;;;;;4879338;29;20467;-92
2022/12/27 15:00:21;;;;;;;6.07;0.80;;;;;;;;;;4848498;29;20486;-91
2022/12/27 15:02:49;;;;;;;7.60;1.07;;;;;;;;;;4849055;29;20798;-91
2022/12/27 15:05:17;;;;;;;9.23;1.27;;;;;;;;;;4882768;29;20443;-91
2022/12/27 15:10:41;;;;;;;11.10;1.37;;;;;;;;;;4884805;29;20446;-91
2022/12/27 15:13:13;;;;;;;4.83;0.93;;;;;;;;;;4883009;29;20511;-91
2022/12/27 15:15:45;;;;;;;4.77;0.80;;;;;;;;;;4864150;29;20443;-91
2022/12/27 15:18:20;;;;;;;3.77;0.80;;;;;;;;;;4864142;29;20447;-91
2022/12/27 15:21:05;;;;;;;5.50;1.17;;;;;;;;;;4879473;29;20490;-91
2022/12/27 15:23:34;;;;;;;7.50;1.00;;;;;;;;;;4848497;29;20447;-91
2022/12/27 15:26:15;;;;;;;5.57;0.97;;;;;;;;;;4864481;29;20923;-91
2022/12/27 15:32:23;;;;;;;3.80;0.90;;;;;;;;;;4864511;29;20419;-91
2022/12/27 15:35:20;;;;;;;4.53;0.80;;;;;;;;;;4863211;29;20534;-91
2022/12/27 15:37:52;;;;;;;11.40;0.70;;;;;;;;;;4843880;29;20484;-91
2022/12/27 15:40:31;;;;;;;5.47;0.83;;;;;;;;;;4862422;29;20788;-91
2022/12/27 15:43:04;;;;;;;2.33;0.83;;;;;;;;;;4861370;29;20454;-91
2022/12/27 15:48:42;;;;;;;5.80;0.90;;;;;;;;;;4862481;29;20580;-91
2022/12/27 15:51:18;;;;;;;2.37;0.70;;;;;;;;;;4848148;29;20451;-91
2022/12/27 15:57:13;;;;;;;8.33;0.93;;;;;;;;;;4862536;29;20456;-91
2022/12/27 15:59:44;;;;;;;11.20;1.07;;;;;;;;;;4847009;29;20455;-91
2022/12/27 16:02:29;;;;;;;2.57;1.10;;;;;;;;;;4832163;29;20584;-91
2022/12/27 16:05:09;;;;;;;2.90;0.70;;;;;;;;;;4847065;29;20884;-91
2022/12/27 16:07:57;;;;;;;9.03;1.00;;;;;;;;;;4847169;29;20447;-91
2022/12/27 16:13:57;;;;;;;3.80;1.00;;;;;;;;;;4869946;29;20458;-91
2022/12/27 16:16:27;;;;;;;7.67;1.33;;;;;;;;;;4917096;29;21077;-91
2022/12/27 16:18:59;;;;;;;10.43;1.10;;;;;;;;;;4886072;29;20952;-91
2022/12/27 16:21:46;;;;;;;10.43;1.33;;;;;;;;;;4885309;29;20489;-91
2022/12/27 16:24:16;;;;;;;12.67;1.30;;;;;;;;;;4901165;29;20863;-91
2022/12/27 16:26:58;;;;;;;6.13;1.23;;;;;;;;;;4888490;29;20430;-91
2022/12/27 16:29:31;;;;;;;23.73;2.20;;;;;;;;;;4886592;29;20509;-91
2022/12/27 16:32:17;;;;;;;5.47;0.90;;;;;;;;;;4884349;29;20461;-91
2022/12/27 16:34:54;;;;;;;6.37;0.87;;;;;;;;;;4871708;29;20887;-91
2022/12/27 16:37:35;;;;;;;4.93;0.90;;;;;;;;;;4886860;29;20456;-91
2022/12/27 16:40:25;;;;;;;10.23;0.90;;;;;;;;;;4875111;29;20446;-91
2022/12/27 16:42:55;;;;;;;6.30;1.10;;;;;;;;;;4885395;29;20521;-91
2022/12/27 16:45:42;;;;;;;10.07;1.43;;;;;;;;;;4900857;29;20932;-91
2022/12/27 16:48:12;;;;;;;4.13;0.90;;;;;;;;;;4884064;29;20497;-91
2022/12/27 16:53:39;;;;;;;12.97;1.93;;;;;;;;;;4899991;29;20458;-91
2022/12/27 16:56:16;;;;;;;5.93;1.10;;;;;;;;;;4872711;29;20485;-90
2022/12/27 16:59:10;;;;;;;5.20;1.03;;;;;;;;;;4887872;29;20460;-90
2022/12/27 17:01:42;;;;;;;7.00;0.90;;;;;;;;;;4885470;29;20553;-90
2022/12/27 17:04:32;;;;;;;9.13;1.30;;;;;;;;;;4886167;29;20442;-91
2022/12/27 17:07:03;;;;;;;9.80;1.03;;;;;;;;;;4884874;29;20453;-91
2022/12/27 17:12:41;;;;;;;5.67;0.83;;;;;;;;;;4904212;29;20438;-91
2022/12/27 17:15:09;;;;;;;4.40;1.67;;;;;;;;;;4884832;29;20477;-90
2022/12/27 17:17:37;;;;;;;12.03;1.50;;;;;;;;;;4883748;29;20450;-91
2022/12/27 17:20:14;;;;;;;7.77;1.53;;;;;;;;;;4869560;29;20445;-91
2022/12/27 17:22:43;;;;;;;5.30;1.57;;;;;;;;;;4903124;29;20486;-90
2022/12/27 17:25:16;;;;;;;5.87;1.23;;;;;;;;;;4868569;29;20469;-91
2022/12/27 17:27:58;;;;;;;4.83;1.00;;;;;;;;;;4868332;29;20514;-90
2022/12/27 17:30:50;;;;;;;10.27;1.80;;;;;;;;;;4884402;29;20525;-90
2022/12/27 17:33:21;;;;;;;26.40;2.80;;;;;;;;;;4888146;29;20485;-90
2022/12/27 17:35:52;;;;;;;15.93;2.30;;;;;;;;;;4883617;29;20462;-90
2022/12/27 17:38:25;;;;;;;12.57;5.87;;;;;;;;;;4883408;29;21027;-90
2022/12/27 17:41:11;;;;;;;16.67;6.27;;;;;;;;;;4883469;29;20477;-90
2022/12/27 17:46:35;;;;;;;10.07;2.77;;;;;;;;;;4899331;29;20581;-91
2022/12/27 17:49:12;;;;;;;3.03;1.30;;;;;;;;;;4883644;29;20460;-91
2022/12/27 17:57:55;;;;;;;12.63;3.10;;;;;;;;;;4903956;29;21024;-90
2022/12/27 18:00:32;;;;;;;8.80;1.97;;;;;;;;;;4899608;29;20885;-91
2022/12/27 18:03:01;;;;;;;7.40;1.97;;;;;;;;;;4868586;29;20517;-90
2022/12/27 18:05:42;;;;;;;7.50;2.23;;;;;;;;;;4885212;29;20501;-91
2022/12/27 18:08:21;;;;;;;7.33;3.00;;;;;;;;;;4883109;29;20485;-90
2022/12/27 18:10:55;;;;;;;8.80;2.63;;;;;;;;;;4867622;29;20438;-89